Time;durP1;ratioP1;P1;durP2;ratioP2;P2;SDS_P1;SDS_P2;PMS_P1;PMS_P2;Temp;Humidity;BMP_temperature;BMP_pressure;BME280_temperature;BME280_humidity;BME280_pressure;Samples;Min_cycle;Max_cycle;Signal;HPM_P1;HPM_P2
2023/12/11 00:02:13;;;;;;;0.20;0.20;;;;;;;;;;5038699;28;20033;-80
2023/12/11 00:04:39;;;;;;;0.63;0.63;;;;;;;;;;5041615;28;20440;-79
2023/12/11 00:07:05;;;;;;;0.25;0.25;;;;;;;;;;5028883;28;20021;-80
2023/12/11 00:09:31;;;;;;;0.43;0.40;;;;;;;;;;5037706;28;20096;-79
2023/12/11 00:11:57;;;;;;;0.32;0.30;;;;;;;;;;5030660;28;20030;-80
2023/12/11 00:14:27;;;;;;;0.20;0.20;;;;;;;;;;5031517;28;20037;-78
2023/12/11 00:16:53;;;;;;;0.10;0.10;;;;;;;;;;5033389;28;20204;-80
2023/12/11 00:19:19;;;;;;;0.20;0.20;;;;;;;;;;5042180;28;20049;-79
2023/12/11 00:21:47;;;;;;;0.20;0.20;;;;;;;;;;5038887;28;20068;-80
2023/12/11 00:24:14;;;;;;;0.20;0.17;;;;;;;;;;5038496;28;20029;-80
2023/12/11 00:26:40;;;;;;;0.38;0.30;;;;;;;;;;5036630;28;20022;-80
2023/12/11 00:29:06;;;;;;;1.08;0.20;;;;;;;;;;5037553;28;20026;-80
2023/12/11 00:31:32;;;;;;;0.22;0.00;;;;;;;;;;5045844;28;20029;-79
2023/12/11 00:33:58;;;;;;;0.45;0.28;;;;;;;;;;5032666;28;20066;-80
2023/12/11 00:36:25;;;;;;;1.20;0.17;;;;;;;;;;5030970;28;20030;-80
2023/12/11 00:38:51;;;;;;;0.20;0.10;;;;;;;;;;5036399;28;20030;-80
2023/12/11 00:41:17;;;;;;;1.13;0.32;;;;;;;;;;5044994;28;20022;-79
2023/12/11 00:43:43;;;;;;;0.10;0.10;;;;;;;;;;5037904;28;20037;-78
2023/12/11 00:46:13;;;;;;;0.10;0.10;;;;;;;;;;5043494;28;20041;-79
2023/12/11 00:48:39;;;;;;;0.47;0.13;;;;;;;;;;5028388;28;20108;-81
2023/12/11 00:51:06;;;;;;;1.55;0.15;;;;;;;;;;5034940;28;20079;-80
2023/12/11 00:53:32;;;;;;;0.20;0.13;;;;;;;;;;5033997;28;20109;-81
2023/12/11 00:55:58;;;;;;;0.25;0.25;;;;;;;;;;5045359;28;20051;-79
2023/12/11 00:58:24;;;;;;;0.20;0.17;;;;;;;;;;5043406;28;20024;-79
2023/12/11 01:00:50;;;;;;;0.20;0.20;;;;;;;;;;5049666;28;20437;-80
2023/12/11 01:03:16;;;;;;;0.00;0.00;;;;;;;;;;5034308;28;20041;-79
2023/12/11 01:05:42;;;;;;;0.30;0.20;;;;;;;;;;5037071;28;20171;-80
2023/12/11 01:08:08;;;;;;;0.22;0.20;;;;;;;;;;5038040;28;20037;-79
2023/12/11 01:10:35;;;;;;;0.45;0.15;;;;;;;;;;5032727;28;20026;-80
2023/12/11 01:13:01;;;;;;;0.43;0.20;;;;;;;;;;5047450;28;20037;-79
2023/12/11 01:15:27;;;;;;;1.65;0.22;;;;;;;;;;5042944;28;20025;-80
2023/12/11 01:17:53;;;;;;;0.20;0.20;;;;;;;;;;5033876;28;20348;-80
2023/12/11 01:20:19;;;;;;;0.20;0.13;;;;;;;;;;5033720;28;20508;-80
2023/12/11 01:22:45;;;;;;;4.07;0.45;;;;;;;;;;5035373;28;20037;-80
2023/12/11 01:25:11;;;;;;;0.25;0.10;;;;;;;;;;5029307;28;20032;-79
2023/12/11 01:27:38;;;;;;;0.35;0.10;;;;;;;;;;5028944;28;20612;-80
2023/12/11 01:30:04;;;;;;;0.10;0.10;;;;;;;;;;5036501;28;20033;-80
2023/12/11 01:32:30;;;;;;;0.65;0.10;;;;;;;;;;5032118;28;20026;-81
2023/12/11 01:34:56;;;;;;;0.20;0.20;;;;;;;;;;5041884;28;20022;-79
2023/12/11 01:37:23;;;;;;;0.30;0.10;;;;;;;;;;5046634;28;20048;-80
2023/12/11 01:39:49;;;;;;;1.17;0.30;;;;;;;;;;5041475;28;20353;-80
2023/12/11 01:42:15;;;;;;;0.10;0.10;;;;;;;;;;5038245;28;20026;-80
2023/12/11 01:44:41;;;;;;;0.60;0.10;;;;;;;;;;5035112;28;20030;-80
2023/12/11 01:47:07;;;;;;;0.15;0.10;;;;;;;;;;5040402;28;20025;-80
2023/12/11 01:49:35;;;;;;;0.30;0.17;;;;;;;;;;5036956;28;20231;-80
2023/12/11 01:52:01;;;;;;;0.50;0.30;;;;;;;;;;5037805;28;20048;-80
2023/12/11 01:54:27;;;;;;;0.28;0.20;;;;;;;;;;5029926;28;20098;-80
2023/12/11 01:56:53;;;;;;;0.68;0.30;;;;;;;;;;5037460;28;20104;-79
2023/12/11 01:59:19;;;;;;;1.15;0.20;;;;;;;;;;5036195;28;20034;-81
2023/12/11 02:01:46;;;;;;;0.35;0.10;;;;;;;;;;5038471;28;20014;-80
2023/12/11 02:04:12;;;;;;;1.65;0.30;;;;;;;;;;5044781;28;20148;-80
2023/12/11 02:06:38;;;;;;;0.65;0.25;;;;;;;;;;5027575;28;20033;-80
2023/12/11 02:09:05;;;;;;;0.30;0.10;;;;;;;;;;5034193;28;20022;-79
2023/12/11 02:11:31;;;;;;;0.20;0.20;;;;;;;;;;5031835;28;20089;-80
2023/12/11 02:13:57;;;;;;;0.57;0.30;;;;;;;;;;5043605;28;20056;-80
2023/12/11 02:16:23;;;;;;;1.17;0.20;;;;;;;;;;5046124;28;20107;-80
2023/12/11 02:18:49;;;;;;;0.38;0.30;;;;;;;;;;5049718;28;20025;-81
2023/12/11 02:21:15;;;;;;;0.88;0.20;;;;;;;;;;5047512;28;20076;-81
2023/12/11 02:23:41;;;;;;;0.63;0.20;;;;;;;;;;5045131;28;20033;-80
2023/12/11 02:26:08;;;;;;;1.05;0.30;;;;;;;;;;5033859;28;20224;-80
2023/12/11 02:28:34;;;;;;;0.63;0.10;;;;;;;;;;5029956;28;20053;-80
2023/12/11 02:31:00;;;;;;;0.88;0.20;;;;;;;;;;5028060;28;20033;-80
2023/12/11 02:33:26;;;;;;;0.32;0.30;;;;;;;;;;5033014;28;20026;-80
2023/12/11 02:35:52;;;;;;;0.80;0.20;;;;;;;;;;5033110;28;20034;-81
2023/12/11 02:38:18;;;;;;;0.43;0.20;;;;;;;;;;5029831;28;20033;-80
2023/12/11 02:40:45;;;;;;;0.30;0.20;;;;;;;;;;5031732;28;20030;-81
2023/12/11 02:43:11;;;;;;;0.57;0.22;;;;;;;;;;5036523;28;20037;-79
2023/12/11 02:45:37;;;;;;;0.80;0.28;;;;;;;;;;5046052;28;20018;-79
2023/12/11 02:48:03;;;;;;;1.75;0.30;;;;;;;;;;5031904;28;20041;-79
2023/12/11 02:50:30;;;;;;;1.25;0.20;;;;;;;;;;5027136;28;20496;-81
2023/12/11 02:52:57;;;;;;;0.38;0.20;;;;;;;;;;5037774;28;20040;-80
2023/12/11 02:55:23;;;;;;;0.60;0.28;;;;;;;;;;5031094;28;20029;-79
2023/12/11 02:57:49;;;;;;;0.60;0.25;;;;;;;;;;5029841;28;20029;-80
2023/12/11 03:00:16;;;;;;;1.50;0.20;;;;;;;;;;5029905;28;20551;-80
2023/12/11 03:02:42;;;;;;;0.20;0.20;;;;;;;;;;5034260;28;20025;-81
2023/12/11 03:05:08;;;;;;;0.55;0.25;;;;;;;;;;5028018;28;20033;-81
2023/12/11 03:07:34;;;;;;;0.63;0.20;;;;;;;;;;5026823;28;20396;-80
2023/12/11 03:10:00;;;;;;;1.13;0.43;;;;;;;;;;5035506;28;20030;-79
2023/12/11 03:12:26;;;;;;;0.98;0.35;;;;;;;;;;5030318;28;20029;-80
2023/12/11 03:14:52;;;;;;;0.68;0.50;;;;;;;;;;5033679;28;20026;-81
2023/12/11 03:17:19;;;;;;;0.40;0.20;;;;;;;;;;5034962;28;20097;-80
2023/12/11 03:19:45;;;;;;;1.38;0.28;;;;;;;;;;5034176;28;20062;-81
2023/12/11 03:22:11;;;;;;;1.05;0.40;;;;;;;;;;5031290;28;20044;-81
2023/12/11 03:24:37;;;;;;;1.75;0.40;;;;;;;;;;5030024;28;20052;-81
2023/12/11 03:27:03;;;;;;;0.50;0.20;;;;;;;;;;5035153;28;20061;-81
2023/12/11 03:29:29;;;;;;;1.00;0.20;;;;;;;;;;5033719;28;20037;-80
2023/12/11 03:31:55;;;;;;;2.15;0.73;;;;;;;;;;5033719;28;20108;-81
2023/12/11 03:34:22;;;;;;;1.38;0.40;;;;;;;;;;5037828;28;20037;-81
2023/12/11 03:36:48;;;;;;;0.47;0.40;;;;;;;;;;5037719;28;20435;-81
2023/12/11 03:39:15;;;;;;;0.40;0.30;;;;;;;;;;5033980;28;20029;-80
2023/12/11 03:41:42;;;;;;;0.68;0.60;;;;;;;;;;5035842;28;20045;-80
2023/12/11 03:44:08;;;;;;;0.25;0.25;;;;;;;;;;5035858;28;20101;-80
2023/12/11 03:46:34;;;;;;;0.82;0.38;;;;;;;;;;5032283;28;20334;-81
2023/12/11 03:49:00;;;;;;;1.20;0.40;;;;;;;;;;5031283;28;20030;-80
2023/12/11 03:51:26;;;;;;;1.48;0.40;;;;;;;;;;5035959;28;20102;-80
2023/12/11 03:53:53;;;;;;;1.42;0.57;;;;;;;;;;5033808;28;20047;-79
2023/12/11 03:56:19;;;;;;;1.63;0.47;;;;;;;;;;5035404;28;20082;-81
2023/12/11 03:58:45;;;;;;;1.48;0.47;;;;;;;;;;5031561;28;20029;-81
2023/12/11 04:01:11;;;;;;;1.00;0.73;;;;;;;;;;5036662;28;20047;-78
2023/12/11 04:03:40;;;;;;;0.40;0.22;;;;;;;;;;5051430;28;20033;-80
2023/12/11 04:06:06;;;;;;;0.75;0.30;;;;;;;;;;5042345;28;20045;-78
2023/12/11 04:08:33;;;;;;;0.28;0.28;;;;;;;;;;5032979;28;20064;-78
2023/12/11 04:11:05;;;;;;;0.43;0.40;;;;;;;;;;5032666;28;20025;-79
2023/12/11 04:13:31;;;;;;;;;;;;;;;;;;5037520;28;20049;-79
2023/12/11 04:15:57;;;;;;;0.65;0.20;;;;;;;;;;5035342;28;20434;-78
2023/12/11 04:18:23;;;;;;;0.20;0.20;;;;;;;;;;5036976;28;20056;-79
2023/12/11 04:20:49;;;;;;;0.95;0.40;;;;;;;;;;5035748;28;20040;-79
2023/12/11 04:23:15;;;;;;;0.57;0.28;;;;;;;;;;5040377;28;20029;-79
2023/12/11 04:25:44;;;;;;;0.70;0.38;;;;;;;;;;5037905;28;20087;-79
2023/12/11 04:28:10;;;;;;;0.30;0.30;;;;;;;;;;5031742;28;20022;-79
2023/12/11 04:30:36;;;;;;;1.35;0.40;;;;;;;;;;5040843;28;20033;-79
2023/12/11 04:33:02;;;;;;;0.22;0.20;;;;;;;;;;5041501;28;20393;-79
2023/12/11 04:35:28;;;;;;;0.45;0.40;;;;;;;;;;5036346;28;20151;-79
2023/12/11 04:37:55;;;;;;;1.10;0.40;;;;;;;;;;5036952;28;20499;-80
2023/12/11 04:40:21;;;;;;;0.20;0.20;;;;;;;;;;5035486;28;20029;-79
2023/12/11 04:42:47;;;;;;;0.93;0.30;;;;;;;;;;5046697;28;20029;-78
2023/12/11 04:45:13;;;;;;;1.23;0.30;;;;;;;;;;5036923;28;20137;-79
2023/12/11 04:47:39;;;;;;;0.30;0.20;;;;;;;;;;5042721;28;20030;-80
2023/12/11 04:50:21;;;;;;;0.43;0.22;;;;;;;;;;5183837;22;20159;-80
2023/12/11 04:52:50;;;;;;;0.30;0.30;;;;;;;;;;5019825;28;20021;-79
2023/12/11 04:55:16;;;;;;;0.55;0.20;;;;;;;;;;5021362;28;20289;-79
2023/12/11 04:58:05;;;;;;;1.08;0.20;;;;;;;;;;5017553;28;20048;-80
2023/12/11 05:00:31;;;;;;;1.30;0.10;;;;;;;;;;4997495;28;20038;-79
2023/12/11 05:02:57;;;;;;;0.35;0.10;;;;;;;;;;5000759;28;20030;-80
2023/12/11 05:05:23;;;;;;;0.38;0.15;;;;;;;;;;5002121;28;20038;-81
2023/12/11 05:16:30;;;;;;;0.50;0.20;;;;;;;;;;5023619;28;20075;-81
2023/12/11 05:18:56;;;;;;;0.10;0.10;;;;;;;;;;5032249;28;20068;-80
2023/12/11 05:21:23;;;;;;;0.30;0.30;;;;;;;;;;5028449;28;20022;-80
2023/12/11 05:23:53;;;;;;;0.95;0.25;;;;;;;;;;5019817;28;20010;-81
2023/12/11 05:26:22;;;;;;;0.20;0.20;;;;;;;;;;5018220;28;20500;-81
2023/12/11 05:28:49;;;;;;;0.30;0.25;;;;;;;;;;5002314;28;20090;-81
2023/12/11 05:31:15;;;;;;;0.10;0.10;;;;;;;;;;5004252;28;20078;-82
2023/12/11 05:33:41;;;;;;;0.88;0.30;;;;;;;;;;5005550;28;20027;-81
2023/12/11 05:36:08;;;;;;;1.45;0.40;;;;;;;;;;5018066;28;20026;-78
2023/12/11 05:38:34;;;;;;;0.15;0.15;;;;;;;;;;5005968;28;20434;-80
2023/12/11 05:41:00;;;;;;;1.00;0.30;;;;;;;;;;5007634;28;20026;-82
2023/12/11 05:43:26;;;;;;;0.45;0.30;;;;;;;;;;5006829;28;20155;-80
2023/12/11 05:45:53;;;;;;;0.25;0.25;;;;;;;;;;4998406;28;20036;-78
2023/12/11 05:48:19;;;;;;;0.50;0.50;;;;;;;;;;4996604;28;20041;-78
2023/12/11 05:50:45;;;;;;;0.50;0.45;;;;;;;;;;5007497;28;20022;-78
2023/12/11 05:53:11;;;;;;;0.30;0.30;;;;;;;;;;5011743;28;20057;-79
2023/12/11 05:55:37;;;;;;;0.52;0.40;;;;;;;;;;5007352;28;20083;-76
2023/12/11 05:58:03;;;;;;;0.40;0.40;;;;;;;;;;5029570;28;20021;-77
2023/12/11 06:00:30;;;;;;;1.02;0.30;;;;;;;;;;5013167;28;20027;-79
2023/12/11 06:02:56;;;;;;;0.50;0.30;;;;;;;;;;5013254;28;20030;-78
2023/12/11 06:05:22;;;;;;;0.38;0.30;;;;;;;;;;5015932;28;20040;-79
2023/12/11 06:07:48;;;;;;;0.85;0.40;;;;;;;;;;5014593;28;20074;-78
2023/12/11 06:10:14;;;;;;;0.57;0.40;;;;;;;;;;5011960;28;20037;-78
2023/12/11 06:12:40;;;;;;;0.30;0.30;;;;;;;;;;5005397;28;20038;-79
2023/12/11 06:15:07;;;;;;;0.52;0.40;;;;;;;;;;5026914;28;20030;-77
2023/12/11 06:17:33;;;;;;;0.30;0.30;;;;;;;;;;5012761;28;20057;-81
2023/12/11 06:19:59;;;;;;;0.63;0.32;;;;;;;;;;5011305;28;20066;-78
2023/12/11 06:22:25;;;;;;;0.30;0.30;;;;;;;;;;5000081;28;20034;-79
2023/12/11 06:24:52;;;;;;;0.40;0.30;;;;;;;;;;5014943;28;20089;-79
2023/12/11 06:27:18;;;;;;;1.38;0.43;;;;;;;;;;4998345;28;20507;-78
2023/12/11 06:29:44;;;;;;;0.30;0.30;;;;;;;;;;5000501;28;20041;-79
2023/12/11 06:32:10;;;;;;;1.05;0.50;;;;;;;;;;5000750;28;20018;-79
2023/12/11 06:34:36;;;;;;;0.70;0.32;;;;;;;;;;4998789;28;20041;-80
2023/12/11 06:37:05;;;;;;;0.30;0.30;;;;;;;;;;4999569;28;20093;-79
2023/12/11 06:39:31;;;;;;;0.28;0.28;;;;;;;;;;4997100;28;20228;-77
2023/12/11 06:41:58;;;;;;;0.20;0.20;;;;;;;;;;4995805;28;20054;-77
2023/12/11 06:44:24;;;;;;;0.52;0.30;;;;;;;;;;5004523;28;20026;-79
2023/12/11 06:46:51;;;;;;;0.30;0.30;;;;;;;;;;4997964;28;20046;-79
2023/12/11 06:49:17;;;;;;;1.63;0.47;;;;;;;;;;4998222;28;20050;-78
2023/12/11 06:51:43;;;;;;;0.30;0.30;;;;;;;;;;4997819;28;20018;-78
2023/12/11 06:54:10;;;;;;;0.30;0.30;;;;;;;;;;4998544;28;20022;-78
2023/12/11 06:56:37;;;;;;;0.73;0.30;;;;;;;;;;4997365;28;20030;-78
2023/12/11 06:59:03;;;;;;;0.45;0.45;;;;;;;;;;5005211;28;20026;-79
2023/12/11 07:01:30;;;;;;;1.33;0.32;;;;;;;;;;5010040;28;20030;-78
2023/12/11 07:03:56;;;;;;;0.47;0.43;;;;;;;;;;5008295;28;20034;-79
2023/12/11 07:06:22;;;;;;;1.38;0.63;;;;;;;;;;5014391;28;20034;-78
2023/12/11 07:08:49;;;;;;;0.52;0.50;;;;;;;;;;5015935;28;20221;-80
2023/12/11 07:11:16;;;;;;;0.52;0.45;;;;;;;;;;5017342;28;20335;-79
2023/12/11 07:13:42;;;;;;;1.00;0.70;;;;;;;;;;5008120;28;20034;-80
2023/12/11 07:16:08;;;;;;;0.63;0.52;;;;;;;;;;5009803;28;20035;-80
2023/12/11 07:18:35;;;;;;;0.50;0.50;;;;;;;;;;4999694;28;20034;-79
2023/12/11 07:21:01;;;;;;;0.30;0.30;;;;;;;;;;5001096;28;20023;-79
2023/12/11 07:23:27;;;;;;;0.45;0.32;;;;;;;;;;5000406;28;20111;-79
2023/12/11 07:25:53;;;;;;;0.40;0.40;;;;;;;;;;4996228;28;20037;-79
2023/12/11 07:28:19;;;;;;;0.55;0.38;;;;;;;;;;4999605;28;20034;-80
2023/12/11 07:30:45;;;;;;;0.55;0.40;;;;;;;;;;4999168;28;20018;-80
2023/12/11 07:33:11;;;;;;;0.30;0.30;;;;;;;;;;4999320;28;20022;-79
2023/12/11 07:35:37;;;;;;;0.73;0.57;;;;;;;;;;4997223;28;20114;-81
2023/12/11 07:38:04;;;;;;;0.77;0.50;;;;;;;;;;4998256;28;20033;-78
2023/12/11 07:40:30;;;;;;;0.60;0.40;;;;;;;;;;4997337;28;20027;-79
2023/12/11 07:42:56;;;;;;;1.33;0.85;;;;;;;;;;5004324;28;20535;-80
2023/12/11 07:45:23;;;;;;;0.68;0.47;;;;;;;;;;5008618;28;20041;-79
2023/12/11 07:47:49;;;;;;;0.77;0.43;;;;;;;;;;5000312;28;20066;-78
2023/12/11 07:50:16;;;;;;;0.68;0.50;;;;;;;;;;4996066;28;20215;-80
2023/12/11 07:52:42;;;;;;;1.30;0.40;;;;;;;;;;4997357;28;20311;-79
2023/12/11 07:55:08;;;;;;;1.20;0.40;;;;;;;;;;4998733;28;20018;-79
2023/12/11 07:57:34;;;;;;;0.25;0.25;;;;;;;;;;5001432;28;20054;-78
2023/12/11 08:00:01;;;;;;;0.20;0.10;;;;;;;;;;4997237;28;20129;-81
2023/12/11 08:02:27;;;;;;;0.30;0.30;;;;;;;;;;4996713;28;20030;-79
2023/12/11 08:04:53;;;;;;;1.55;0.30;;;;;;;;;;5000265;28;20543;-80
2023/12/11 08:07:19;;;;;;;0.32;0.32;;;;;;;;;;5009688;28;20026;-79
2023/12/11 08:09:45;;;;;;;0.40;0.40;;;;;;;;;;5007276;28;20030;-78
2023/12/11 08:12:11;;;;;;;0.30;0.30;;;;;;;;;;5007968;28;20022;-78
2023/12/11 08:14:37;;;;;;;0.82;0.40;;;;;;;;;;5010665;28;20029;-80
2023/12/11 08:17:04;;;;;;;0.63;0.45;;;;;;;;;;5002248;28;20034;-78
2023/12/11 08:19:33;;;;;;;0.30;0.30;;;;;;;;;;4998164;28;20015;-78
2023/12/11 08:21:59;;;;;;;0.40;0.40;;;;;;;;;;4995448;28;20030;-79
2023/12/11 08:24:25;;;;;;;0.20;0.20;;;;;;;;;;4991315;28;20161;-79
2023/12/11 08:26:51;;;;;;;1.60;0.30;;;;;;;;;;5002151;28;20026;-79
2023/12/11 08:29:18;;;;;;;0.40;0.30;;;;;;;;;;5005350;28;20045;-79
2023/12/11 08:31:44;;;;;;;0.63;0.28;;;;;;;;;;4999626;28;20113;-79
2023/12/11 08:34:10;;;;;;;0.45;0.35;;;;;;;;;;5007001;28;20034;-79
2023/12/11 08:36:36;;;;;;;0.25;0.25;;;;;;;;;;4998682;28;20118;-78
2023/12/11 08:39:03;;;;;;;0.47;0.20;;;;;;;;;;4998881;28;20034;-78
2023/12/11 08:41:29;;;;;;;0.20;0.20;;;;;;;;;;4998239;28;20021;-78
2023/12/11 08:43:55;;;;;;;0.63;0.40;;;;;;;;;;5004741;28;20077;-78
2023/12/11 08:46:22;;;;;;;0.45;0.30;;;;;;;;;;5013150;28;20027;-79
2023/12/11 08:48:48;;;;;;;0.98;0.30;;;;;;;;;;4997139;28;20072;-78
2023/12/11 08:51:19;;;;;;;0.30;0.30;;;;;;;;;;4996377;28;20061;-79
2023/12/11 08:53:45;;;;;;;1.30;0.60;;;;;;;;;;5006741;28;20104;-78
2023/12/11 08:56:12;;;;;;;0.80;0.60;;;;;;;;;;4998968;28;20041;-80
2023/12/11 08:58:38;;;;;;;0.57;0.57;;;;;;;;;;5004084;28;20045;-81
2023/12/11 09:01:05;;;;;;;0.40;0.40;;;;;;;;;;4999371;28;20035;-79
2023/12/11 09:03:31;;;;;;;1.17;0.40;;;;;;;;;;4999555;28;20461;-81
2023/12/11 09:05:57;;;;;;;1.48;0.68;;;;;;;;;;4999541;28;20109;-82
2023/12/11 09:08:23;;;;;;;1.13;0.60;;;;;;;;;;5001525;28;20018;-81
2023/12/11 09:10:50;;;;;;;0.88;0.40;;;;;;;;;;4999913;28;20023;-80
2023/12/11 09:13:16;;;;;;;0.40;0.40;;;;;;;;;;5000762;28;20061;-81
2023/12/11 09:15:42;;;;;;;0.55;0.40;;;;;;;;;;5005517;28;20030;-82
2023/12/11 09:18:09;;;;;;;0.40;0.40;;;;;;;;;;4998779;28;20049;-82
2023/12/11 09:20:35;;;;;;;0.90;0.32;;;;;;;;;;5002869;28;20082;-80
2023/12/11 09:23:02;;;;;;;0.95;0.43;;;;;;;;;;5016171;28;20026;-83
2023/12/11 09:25:28;;;;;;;0.95;0.50;;;;;;;;;;5015936;28;20038;-80
2023/12/11 09:27:54;;;;;;;0.98;0.47;;;;;;;;;;5008430;28;20171;-81
2023/12/11 09:30:22;;;;;;;1.58;0.50;;;;;;;;;;5005458;28;20030;-82
2023/12/11 09:32:48;;;;;;;0.60;0.30;;;;;;;;;;5005973;28;20080;-82
2023/12/11 09:35:14;;;;;;;0.60;0.40;;;;;;;;;;5005504;28;20034;-82
2023/12/11 09:37:41;;;;;;;1.23;0.68;;;;;;;;;;5013369;28;20026;-81
2023/12/11 09:40:07;;;;;;;1.02;0.75;;;;;;;;;;5015065;28;20089;-81
2023/12/11 09:42:36;;;;;;;1.40;0.77;;;;;;;;;;5008592;28;20038;-79
2023/12/11 09:45:03;;;;;;;2.55;0.90;;;;;;;;;;5010475;28;20059;-80
2023/12/11 09:47:31;;;;;;;1.88;1.05;;;;;;;;;;5011848;28;20042;-82
2023/12/11 09:49:57;;;;;;;1.52;0.73;;;;;;;;;;5016564;28;20036;-82
2023/12/11 09:52:23;;;;;;;1.45;0.90;;;;;;;;;;5033098;28;20026;-81
2023/12/11 09:54:50;;;;;;;2.17;0.88;;;;;;;;;;5007044;28;20050;-81
2023/12/11 09:57:16;;;;;;;0.95;0.77;;;;;;;;;;5007737;28;20077;-81
2023/12/11 09:59:43;;;;;;;1.20;0.75;;;;;;;;;;5021301;28;20089;-80
2023/12/11 10:02:12;;;;;;;0.82;0.70;;;;;;;;;;5022209;28;20034;-82
2023/12/11 10:04:38;;;;;;;0.90;0.70;;;;;;;;;;5008913;28;20038;-80
2023/12/11 10:07:04;;;;;;;0.70;0.68;;;;;;;;;;5009668;28;20026;-82
2023/12/11 10:09:33;;;;;;;1.00;0.63;;;;;;;;;;5020354;28;20030;-81
2023/12/11 10:12:00;;;;;;;0.40;0.40;;;;;;;;;;5015378;28;20053;-79
2023/12/11 10:14:28;;;;;;;0.40;0.40;;;;;;;;;;5021573;28;20082;-79
2023/12/11 10:16:54;;;;;;;2.05;0.52;;;;;;;;;;5014300;28;20030;-78
2023/12/11 10:19:31;;;;;;;0.68;0.43;;;;;;;;;;5008932;28;20033;-79
2023/12/11 10:21:58;;;;;;;1.23;0.60;;;;;;;;;;5022326;28;20092;-79
2023/12/11 10:24:24;;;;;;;1.25;0.77;;;;;;;;;;5006054;28;20046;-79
2023/12/11 10:26:56;;;;;;;0.63;0.63;;;;;;;;;;5017156;28;20125;-79
2023/12/11 10:29:23;;;;;;;;;;;;;;;;;;5005204;28;20026;-78
2023/12/11 10:31:49;;;;;;;0.47;0.43;;;;;;;;;;5003954;28;19913;-78
2023/12/11 10:34:15;;;;;;;0.52;0.52;;;;;;;;;;5001876;28;20062;-79
2023/12/11 10:36:49;;;;;;;0.80;0.45;;;;;;;;;;5003495;28;20091;-79
2023/12/11 10:39:15;;;;;;;0.47;0.40;;;;;;;;;;5003910;28;20030;-79
2023/12/11 10:41:44;;;;;;;0.50;0.50;;;;;;;;;;5001222;28;20030;-79
2023/12/11 10:44:20;;;;;;;0.32;0.30;;;;;;;;;;4999629;28;20026;-78
2023/12/11 10:46:46;;;;;;;0.50;0.40;;;;;;;;;;4998322;28;20109;-79
2023/12/11 10:49:12;;;;;;;0.22;0.22;;;;;;;;;;5000342;28;20049;-78
2023/12/11 10:51:39;;;;;;;0.80;0.30;;;;;;;;;;5000062;28;20438;-78
2023/12/11 10:54:05;;;;;;;2.33;0.85;;;;;;;;;;5001624;28;20356;-79
2023/12/11 10:56:31;;;;;;;1.17;0.57;;;;;;;;;;5008003;28;20112;-78
2023/12/11 10:58:58;;;;;;;0.15;0.15;;;;;;;;;;5002909;28;20041;-80
2023/12/11 11:01:24;;;;;;;0.63;0.45;;;;;;;;;;4997763;28;20034;-78
2023/12/11 11:03:50;;;;;;;2.40;0.40;;;;;;;;;;5001372;28;20027;-80
2023/12/11 11:06:16;;;;;;;1.25;0.60;;;;;;;;;;5001341;28;20018;-80
2023/12/11 11:08:49;;;;;;;0.63;0.35;;;;;;;;;;5001421;28;20551;-81
2023/12/11 11:11:22;;;;;;;1.60;0.43;;;;;;;;;;5008593;28;20026;-81
2023/12/11 11:14:08;;;;;;;0.40;0.40;;;;;;;;;;5001435;28;20521;-81
2023/12/11 11:16:53;;;;;;;0.68;0.28;;;;;;;;;;4995475;28;20045;-80
2023/12/11 11:19:19;;;;;;;0.57;0.30;;;;;;;;;;5001492;28;20085;-82
2023/12/11 11:22:02;;;;;;;1.67;0.80;;;;;;;;;;5004789;28;20033;-81
2023/12/11 11:24:29;;;;;;;1.45;0.90;;;;;;;;;;5009424;28;20082;-79
2023/12/11 11:26:55;;;;;;;0.50;0.50;;;;;;;;;;5004745;28;20037;-80
2023/12/11 11:29:40;;;;;;;0.60;0.30;;;;;;;;;;5004334;28;20385;-80
2023/12/11 11:32:06;;;;;;;0.63;0.40;;;;;;;;;;5002450;28;20022;-81
2023/12/11 11:34:41;;;;;;;0.47;0.35;;;;;;;;;;5002413;28;20445;-81
2023/12/11 11:37:15;;;;;;;0.25;0.22;;;;;;;;;;5009719;28;20038;-79
2023/12/11 11:39:59;;;;;;;0.65;0.30;;;;;;;;;;5000811;28;20026;-79
2023/12/11 11:42:26;;;;;;;1.65;0.50;;;;;;;;;;5002265;28;20053;-80
2023/12/11 11:44:57;;;;;;;2.47;0.43;;;;;;;;;;5015518;28;20030;-78
2023/12/11 11:47:23;;;;;;;1.65;0.30;;;;;;;;;;5007820;28;20486;-80
2023/12/11 11:49:49;;;;;;;1.10;0.20;;;;;;;;;;5000735;28;20053;-78
2023/12/11 11:52:19;;;;;;;0.38;0.30;;;;;;;;;;4999654;28;20030;-82
2023/12/11 11:54:45;;;;;;;0.52;0.32;;;;;;;;;;4994420;28;20037;-80
2023/12/11 11:57:11;;;;;;;0.60;0.40;;;;;;;;;;5015903;28;20044;-82
2023/12/11 11:59:45;;;;;;;1.15;0.75;;;;;;;;;;5012892;28;20106;-81
2023/12/11 12:02:11;;;;;;;0.20;0.20;;;;;;;;;;5033505;28;20085;-78
2023/12/11 12:04:37;;;;;;;0.30;0.30;;;;;;;;;;5014356;28;20041;-81
2023/12/11 12:07:07;;;;;;;0.90;0.65;;;;;;;;;;5003393;28;20160;-80
2023/12/11 12:09:34;;;;;;;0.68;0.60;;;;;;;;;;5002724;28;20080;-80
2023/12/11 12:12:01;;;;;;;0.45;0.43;;;;;;;;;;5002015;28;20096;-80
2023/12/11 12:14:27;;;;;;;0.70;0.35;;;;;;;;;;5018197;28;20090;-82
2023/12/11 12:16:53;;;;;;;0.85;0.35;;;;;;;;;;5017468;28;20053;-79
2023/12/11 12:19:32;;;;;;;1.92;0.30;;;;;;;;;;5013836;28;20121;-81
2023/12/11 12:21:59;;;;;;;0.80;0.30;;;;;;;;;;4999913;28;20049;-82
2023/12/11 12:24:25;;;;;;;0.28;0.20;;;;;;;;;;4998859;28;20516;-80
2023/12/11 12:26:55;;;;;;;0.90;0.30;;;;;;;;;;4998621;28;20101;-82
2023/12/11 12:29:21;;;;;;;1.23;0.32;;;;;;;;;;5001742;28;20485;-80
2023/12/11 12:31:47;;;;;;;0.50;0.28;;;;;;;;;;5000073;28;20037;-80
2023/12/11 12:34:14;;;;;;;1.00;0.40;;;;;;;;;;5000951;28;20061;-80
2023/12/11 12:36:41;;;;;;;0.43;0.28;;;;;;;;;;4999394;28;20037;-78
2023/12/11 12:39:07;;;;;;;0.20;0.20;;;;;;;;;;5019143;28;20030;-79
2023/12/11 12:41:33;;;;;;;0.22;0.20;;;;;;;;;;5008069;28;20038;-81
2023/12/11 12:44:00;;;;;;;1.17;0.47;;;;;;;;;;5018943;28;20389;-81
2023/12/11 12:46:27;;;;;;;0.22;0.22;;;;;;;;;;5005009;28;20101;-79
2023/12/11 12:48:53;;;;;;;0.98;0.52;;;;;;;;;;4999456;28;20029;-79
2023/12/11 12:51:19;;;;;;;0.47;0.40;;;;;;;;;;4999683;28;20049;-81
2023/12/11 12:53:46;;;;;;;0.90;0.38;;;;;;;;;;4999561;28;20026;-81
2023/12/11 12:56:16;;;;;;;1.75;0.40;;;;;;;;;;4999616;28;20034;-81
2023/12/11 12:58:45;;;;;;;0.52;0.45;;;;;;;;;;4997441;28;20022;-81
2023/12/11 13:01:11;;;;;;;0.30;0.28;;;;;;;;;;4997119;28;20026;-79
2023/12/11 13:03:38;;;;;;;0.30;0.20;;;;;;;;;;4999298;28;20529;-81
2023/12/11 13:06:05;;;;;;;0.30;0.30;;;;;;;;;;5001770;28;20030;-80
2023/12/11 13:08:44;;;;;;;0.20;0.20;;;;;;;;;;5001693;28;20057;-80
2023/12/11 13:11:11;;;;;;;2.22;0.40;;;;;;;;;;5002934;28;20076;-81
2023/12/11 13:13:38;;;;;;;0.40;0.40;;;;;;;;;;5002061;28;20026;-79
2023/12/11 13:16:04;;;;;;;0.50;0.30;;;;;;;;;;5009789;28;20121;-80
2023/12/11 13:18:35;;;;;;;1.38;0.40;;;;;;;;;;5017628;28;20485;-79
2023/12/11 13:21:02;;;;;;;1.48;0.40;;;;;;;;;;5017619;28;20026;-80
2023/12/11 13:23:28;;;;;;;0.22;0.22;;;;;;;;;;5002066;28;20034;-79
2023/12/11 13:25:54;;;;;;;1.10;0.63;;;;;;;;;;5001696;28;20149;-79
2023/12/11 13:28:20;;;;;;;0.38;0.30;;;;;;;;;;5003249;28;20477;-80
2023/12/11 13:30:46;;;;;;;0.10;0.10;;;;;;;;;;5001148;28;20034;-79
2023/12/11 13:33:13;;;;;;;0.40;0.30;;;;;;;;;;4999435;28;20101;-79
2023/12/11 13:35:39;;;;;;;0.13;0.13;;;;;;;;;;5003002;28;20071;-80
2023/12/11 13:38:05;;;;;;;0.30;0.30;;;;;;;;;;5000286;28;20826;-79
2023/12/11 13:40:31;;;;;;;0.20;0.20;;;;;;;;;;5010997;28;20097;-79
2023/12/11 13:42:57;;;;;;;1.02;0.10;;;;;;;;;;4999292;28;20030;-78
2023/12/11 13:45:23;;;;;;;0.20;0.20;;;;;;;;;;5005165;28;20038;-81
2023/12/11 13:47:49;;;;;;;0.82;0.40;;;;;;;;;;5019639;28;20045;-82
2023/12/11 13:50:15;;;;;;;0.63;0.50;;;;;;;;;;5006308;28;20094;-79
2023/12/11 13:52:41;;;;;;;0.30;0.30;;;;;;;;;;5010513;28;20026;-81
2023/12/11 13:55:08;;;;;;;0.30;0.30;;;;;;;;;;5005086;28;20030;-82
2023/12/11 13:57:34;;;;;;;0.43;0.43;;;;;;;;;;5001237;28;20023;-80
2023/12/11 14:00:00;;;;;;;0.28;0.28;;;;;;;;;;4998225;28;20031;-81
2023/12/11 14:02:26;;;;;;;0.30;0.20;;;;;;;;;;5012195;28;20508;-82
2023/12/11 14:04:52;;;;;;;1.17;0.30;;;;;;;;;;5019206;28;20101;-79
2023/12/11 14:07:18;;;;;;;1.23;0.40;;;;;;;;;;5010409;28;20038;-79
2023/12/11 14:09:44;;;;;;;0.57;0.35;;;;;;;;;;5013859;28;20018;-81
2023/12/11 14:12:10;;;;;;;0.25;0.25;;;;;;;;;;5012516;28;20010;-79
2023/12/11 14:14:37;;;;;;;0.25;0.20;;;;;;;;;;5003853;28;20029;-81
2023/12/11 14:17:05;;;;;;;2.35;0.50;;;;;;;;;;5033145;28;20022;-79
2023/12/11 14:19:31;;;;;;;0.35;0.22;;;;;;;;;;5026294;28;20074;-79
2023/12/11 14:21:57;;;;;;;0.52;0.25;;;;;;;;;;5015433;28;20041;-79
2023/12/11 14:24:25;;;;;;;0.40;0.38;;;;;;;;;;5021876;28;20041;-78
2023/12/11 14:26:52;;;;;;;1.17;0.40;;;;;;;;;;5016911;28;20034;-81
2023/12/11 14:29:18;;;;;;;0.65;0.28;;;;;;;;;;5032138;23;20049;-79
2023/12/11 14:31:47;;;;;;;0.50;0.25;;;;;;;;;;5031212;28;20032;-79
2023/12/11 14:34:13;;;;;;;0.30;0.10;;;;;;;;;;5050178;28;20025;-79
2023/12/11 14:36:39;;;;;;;0.22;0.17;;;;;;;;;;5032345;28;20026;-79
2023/12/11 14:42:03;;;;;;;0.20;0.20;;;;;;;;;;5036106;28;20037;-79
2023/12/11 14:44:32;;;;;;;0.50;0.30;;;;;;;;;;5033276;28;20049;-80
2023/12/11 14:47:28;;;;;;;0.20;0.20;;;;;;;;;;5031403;28;20025;-81
2023/12/11 14:50:02;;;;;;;0.75;0.30;;;;;;;;;;5025589;28;20096;-81
2023/12/11 14:52:28;;;;;;;0.25;0.22;;;;;;;;;;5033417;28;20026;-79
2023/12/11 14:55:17;;;;;;;0.20;0.20;;;;;;;;;;5033291;28;20089;-80